createdAt,value
2022-09-26T00:00:50.514Z,7.70
2022-09-26T00:03:17.138Z,7.60
2022-09-26T00:05:43.643Z,7.53
2022-09-26T00:08:10.165Z,7.49
2022-09-26T00:10:36.700Z,7.39
2022-09-26T00:13:03.289Z,7.51
2022-09-26T00:15:29.803Z,7.48
2022-09-26T00:17:56.348Z,7.41
2022-09-26T00:20:22.876Z,7.44
2022-09-26T00:22:49.425Z,7.37
2022-09-26T00:25:16.027Z,7.40
2022-09-26T00:27:42.594Z,7.44
2022-09-26T00:30:09.825Z,7.49
2022-09-26T00:32:36.370Z,7.39
2022-09-26T00:35:02.914Z,7.40
2022-09-26T00:37:29.469Z,7.37
2022-09-26T00:39:56.815Z,7.33
2022-09-26T00:42:24.852Z,7.27
2022-09-26T00:44:56.794Z,7.26
2022-09-26T00:47:44.892Z,7.17
2022-09-26T00:50:21.155Z,7.19
2022-09-26T00:52:58.187Z,7.20
2022-09-26T00:55:30.206Z,7.18
2022-09-26T00:58:04.518Z,7.15
2022-09-26T01:00:31.782Z,7.12
2022-09-26T01:02:58.753Z,7.17
2022-09-26T01:05:25.910Z,7.23
2022-09-26T01:07:56.143Z,7.23
2022-09-26T01:10:22.854Z,7.26
2022-09-26T01:12:49.361Z,7.32
2022-09-26T01:15:15.981Z,7.32
2022-09-26T01:17:44.341Z,7.37
2022-09-26T01:20:36.194Z,7.45
2022-09-26T01:23:14.982Z,7.44
2022-09-26T01:25:53.734Z,7.62
2022-09-26T01:28:38.287Z,7.75
2022-09-26T01:31:21.082Z,7.82
2022-09-26T01:33:51.386Z,7.90
2022-09-26T01:36:41.821Z,7.98
2022-09-26T01:39:24.768Z,8.03
2022-09-26T01:42:08.294Z,8.21
2022-09-26T01:45:14.802Z,8.31
2022-09-26T01:47:51.034Z,8.28
2022-09-26T01:50:33.828Z,8.21
2022-09-26T01:53:03.083Z,8.18
2022-09-26T01:55:52.027Z,8.15
2022-09-26T01:58:28.540Z,8.16
2022-09-26T02:00:58.438Z,8.17
2022-09-26T02:03:29.234Z,8.23
2022-09-26T02:06:25.189Z,8.20
2022-09-26T02:09:04.446Z,8.13
2022-09-26T02:11:31.151Z,8.12
2022-09-26T02:14:03.943Z,8.05
2022-09-26T02:16:34.765Z,8.03
2022-09-26T02:19:10.257Z,8.09
2022-09-26T02:21:37.186Z,8.07
2022-09-26T02:24:03.901Z,8.03
2022-09-26T02:26:30.605Z,8.08
2022-09-26T02:29:00.638Z,8.13
2022-09-26T02:31:32.352Z,8.10
2022-09-26T02:33:59.011Z,8.08
2022-09-26T02:36:27.541Z,8.14
2022-09-26T02:38:54.131Z,8.17
2022-09-26T02:42:09.274Z,8.12
2022-09-26T02:44:57.660Z,8.11
2022-09-26T02:48:01.169Z,8.08
2022-09-26T02:50:33.599Z,8.07
2022-09-26T02:53:12.879Z,8.05
2022-09-26T02:56:09.949Z,8.01
2022-09-26T02:58:59.684Z,8.01
2022-09-26T03:01:31.731Z,7.99
2022-09-26T03:04:05.569Z,7.98
2022-09-26T03:06:37.195Z,7.99
2022-09-26T03:09:04.937Z,7.99
2022-09-26T03:11:33.128Z,7.93
2022-09-26T03:14:00.577Z,7.94
2022-09-26T03:16:35.747Z,7.97
2022-09-26T03:19:12.111Z,7.93
2022-09-26T03:21:39.078Z,7.95
2022-09-26T03:24:06.235Z,7.96
2022-09-26T03:26:34.745Z,7.94
2022-09-26T03:29:04.038Z,7.96
2022-09-26T03:31:32.878Z,7.96
2022-09-26T03:34:09.947Z,7.94
2022-09-26T03:36:39.849Z,7.92
2022-09-26T03:39:08.662Z,7.90
2022-09-26T03:41:42.339Z,7.94
2022-09-26T03:44:29.639Z,7.94
2022-09-26T03:47:11.183Z,7.96
2022-09-26T03:49:42.390Z,7.95
2022-09-26T03:52:12.402Z,7.99
2022-09-26T03:54:39.732Z,8.01
2022-09-26T03:57:06.579Z,7.98
2022-09-26T03:59:37.360Z,7.97
2022-09-26T04:02:05.578Z,8.00
2022-09-26T04:04:36.807Z,8.00
2022-09-26T04:07:04.003Z,8.01
2022-09-26T04:09:31.134Z,8.01
2022-09-26T04:11:57.890Z,8.05
2022-09-26T04:14:24.477Z,8.05
2022-09-26T04:16:55.616Z,8.06
2022-09-26T04:19:34.329Z,8.06
2022-09-26T04:22:01.766Z,8.03
2022-09-26T04:24:31.627Z,8.00
2022-09-26T04:26:58.732Z,7.98
2022-09-26T04:29:26.650Z,7.94
2022-09-26T04:32:22.217Z,7.93
2022-09-26T04:35:07.683Z,7.91
2022-09-26T04:37:37.178Z,7.89
2022-09-26T04:40:04.754Z,7.85
2022-09-26T04:42:35.291Z,7.80
2022-09-26T04:45:02.029Z,7.77
2022-09-26T04:47:28.574Z,7.66
2022-09-26T04:50:13.547Z,7.70
2022-09-26T04:52:41.163Z,7.62
2022-09-26T04:55:08.227Z,7.70
2022-09-26T04:57:38.101Z,7.57
2022-09-26T05:00:07.258Z,7.69
2022-09-26T05:02:34.093Z,7.61
2022-09-26T05:05:00.849Z,7.55
2022-09-26T05:07:29.538Z,7.53
2022-09-26T05:09:56.138Z,7.47
2022-09-26T05:12:24.224Z,7.34
2022-09-26T05:14:54.109Z,7.20
2022-09-26T05:17:21.632Z,7.19
2022-09-26T05:19:49.180Z,7.18
2022-09-26T05:22:25.608Z,7.14
2022-09-26T05:25:12.120Z,7.19
2022-09-26T05:27:39.989Z,7.27
2022-09-26T05:30:07.305Z,7.43
2022-09-26T05:32:34.293Z,7.43
2022-09-26T05:35:00.900Z,7.62
2022-09-26T05:37:29.976Z,7.56
2022-09-26T05:40:15.367Z,7.53
2022-09-26T05:42:47.837Z,7.49
2022-09-26T05:45:15.747Z,7.54
2022-09-26T05:47:43.012Z,7.66
2022-09-26T05:50:10.341Z,7.68
2022-09-26T05:52:39.368Z,7.81
2022-09-26T05:55:07.497Z,7.93
2022-09-26T05:58:07.639Z,7.99
2022-09-26T06:00:52.788Z,8.17
2022-09-26T06:03:19.993Z,8.37
2022-09-26T06:06:10.553Z,8.54
2022-09-26T06:08:38.594Z,8.61
2022-09-26T06:11:31.109Z,8.78
2022-09-26T06:14:00.702Z,8.96
2022-09-26T06:16:28.726Z,9.00
2022-09-26T06:18:58.462Z,9.12
2022-09-26T06:21:25.063Z,9.22
2022-09-26T06:23:55.813Z,9.40
2022-09-26T06:26:26.061Z,9.40
2022-09-26T06:28:56.959Z,9.47
2022-09-26T06:31:25.478Z,9.51
2022-09-26T06:34:12.147Z,9.74
2022-09-26T06:36:54.989Z,9.86
2022-09-26T06:39:22.069Z,9.97
2022-09-26T06:41:49.037Z,10.06
2022-09-26T06:44:28.651Z,10.14
2022-09-26T06:47:13.827Z,10.22
2022-09-26T06:49:40.475Z,10.02
2022-09-26T06:52:12.195Z,10.25
2022-09-26T06:54:38.790Z,10.28
2022-09-26T06:57:05.587Z,10.32
2022-09-26T06:59:34.071Z,10.38
2022-09-26T07:02:11.239Z,10.23
2022-09-26T07:04:52.402Z,10.39
2022-09-26T07:07:39.803Z,10.57
2022-09-26T07:10:08.453Z,10.85
2022-09-26T07:12:44.146Z,10.53
2022-09-26T07:15:13.832Z,10.51
2022-09-26T07:17:41.555Z,10.98
2022-09-26T07:20:33.742Z,11.03
2022-09-26T07:23:16.955Z,11.56
2022-09-26T07:25:48.042Z,11.79
2022-09-26T07:28:14.933Z,11.93
2022-09-26T07:30:45.344Z,12.68
2022-09-26T07:33:17.762Z,12.92
2022-09-26T07:35:51.189Z,12.10
2022-09-26T07:38:19.290Z,11.77
2022-09-26T07:40:47.431Z,11.70
2022-09-26T07:43:26.785Z,11.50
2022-09-26T07:46:19.379Z,11.78
2022-09-26T07:49:07.958Z,11.83
2022-09-26T07:51:39.133Z,11.44
2022-09-26T07:54:09.780Z,11.75
2022-09-26T07:56:59.739Z,11.69
2022-09-26T07:59:53.913Z,11.76
2022-09-26T08:02:46.786Z,11.71
2022-09-26T08:05:20.141Z,11.48
2022-09-26T08:07:48.690Z,11.56
2022-09-26T08:10:35.109Z,11.80
2022-09-26T08:13:13.829Z,11.65
2022-09-26T08:16:05.692Z,11.79
2022-09-26T08:18:36.766Z,12.44
2022-09-26T08:21:05.813Z,12.98
2022-09-26T08:23:33.892Z,13.56
2022-09-26T08:26:23.292Z,13.46
2022-09-26T08:28:54.826Z,14.00
2022-09-26T08:31:21.526Z,14.08
2022-09-26T08:33:48.347Z,13.80
2022-09-26T08:36:17.846Z,13.90
2022-09-26T08:39:12.703Z,13.94
2022-09-26T08:42:36.180Z,14.88
2022-09-26T08:45:47.289Z,15.08
2022-09-26T08:48:50.114Z,14.36
2022-09-26T08:51:28.283Z,15.11
2022-09-26T08:54:05.140Z,14.86
2022-09-26T08:56:36.372Z,14.90
2022-09-26T08:59:06.138Z,14.72
2022-09-26T09:01:39.402Z,14.54
2022-09-26T09:04:22.455Z,14.73
2022-09-26T09:06:53.427Z,14.02
2022-09-26T09:09:20.879Z,14.02
2022-09-26T09:12:26.218Z,14.36
2022-09-26T09:15:26.885Z,13.57
2022-09-26T09:18:41.251Z,13.61
2022-09-26T09:21:42.159Z,13.53
2022-09-26T09:24:39.830Z,13.45
2022-09-26T09:30:18.559Z,13.19
2022-09-26T09:33:21.924Z,12.92
2022-09-26T09:36:15.055Z,13.32
2022-09-26T09:39:08.461Z,13.31
2022-09-26T09:42:00.297Z,13.09
2022-09-26T09:44:44.336Z,13.28
2022-09-26T09:47:15.417Z,13.03
2022-09-26T09:49:43.524Z,13.42
2022-09-26T09:52:39.147Z,13.56
2022-09-26T09:55:12.579Z,13.50
2022-09-26T09:57:55.434Z,13.30
2022-09-26T10:00:24.211Z,13.16
2022-09-26T10:03:29.646Z,13.38
2022-09-26T10:06:01.696Z,13.43
2022-09-26T10:08:42.855Z,13.26
2022-09-26T10:11:36.397Z,13.56
2022-09-26T10:14:42.648Z,13.22
2022-09-26T10:17:09.234Z,13.12
2022-09-26T10:19:43.476Z,13.28
2022-09-26T10:22:44.862Z,13.61
2022-09-26T10:25:25.690Z,13.75
2022-09-26T10:27:55.196Z,13.15
2022-09-26T10:30:30.257Z,12.94
2022-09-26T10:33:04.712Z,12.81
2022-09-26T10:35:39.881Z,13.31
2022-09-26T10:38:18.261Z,13.06
2022-09-26T10:40:54.910Z,12.77
2022-09-26T10:43:30.791Z,13.00
2022-09-26T10:46:17.388Z,12.74
2022-09-26T10:49:04.037Z,12.97
2022-09-26T10:51:37.347Z,13.10
2022-09-26T10:54:13.200Z,12.92
2022-09-26T10:56:47.186Z,13.09
2022-09-26T10:59:18.168Z,12.65
2022-09-26T11:01:51.411Z,12.72
2022-09-26T11:04:41.243Z,12.81
2022-09-26T11:07:46.318Z,12.98
2022-09-26T11:10:27.619Z,12.72
2022-09-26T11:13:19.032Z,12.87
2022-09-26T11:16:03.028Z,13.12
2022-09-26T11:18:46.686Z,12.96
2022-09-26T11:21:39.507Z,12.76
2022-09-26T11:24:16.121Z,12.63
2022-09-26T11:26:59.884Z,12.83
2022-09-26T11:29:39.592Z,12.93
2022-09-26T11:32:24.130Z,12.85
2022-09-26T11:35:02.553Z,12.93
2022-09-26T11:37:55.119Z,12.80
2022-09-26T11:40:41.341Z,13.11
2022-09-26T11:43:26.334Z,12.85
2022-09-26T11:46:09.589Z,12.95
2022-09-26T11:49:24.351Z,12.77
2022-09-26T11:52:38.067Z,12.58
2022-09-26T11:55:28.165Z,12.55
2022-09-26T11:58:06.200Z,12.59
2022-09-26T12:00:51.244Z,12.59
2022-09-26T12:03:56.189Z,12.34
2022-09-26T12:06:33.515Z,12.35
2022-09-26T12:09:03.165Z,12.18
2022-09-26T12:11:46.637Z,12.01
2022-09-26T12:14:44.536Z,12.09
2022-09-26T12:17:36.250Z,12.20
2022-09-26T12:20:14.138Z,12.03
2022-09-26T12:23:19.142Z,11.88
2022-09-26T12:26:03.698Z,11.90
2022-09-26T12:28:48.829Z,11.81
2022-09-26T12:31:28.904Z,11.78
2022-09-26T12:34:25.630Z,11.89
2022-09-26T12:37:17.856Z,11.72
2022-09-26T12:39:47.474Z,11.66
2022-09-26T12:42:26.778Z,11.88
2022-09-26T12:45:28.985Z,11.84
2022-09-26T12:48:23.669Z,12.00
2022-09-26T12:50:53.008Z,11.94
2022-09-26T12:53:31.647Z,11.97
2022-09-26T12:56:05.051Z,11.94
2022-09-26T12:58:50.009Z,11.95
2022-09-26T13:01:43.582Z,11.90
2022-09-26T13:04:39.968Z,11.93
2022-09-26T13:07:20.928Z,11.92
2022-09-26T13:10:15.868Z,11.99
2022-09-26T13:12:53.488Z,12.23
2022-09-26T13:15:24.516Z,12.16
2022-09-26T13:17:57.931Z,12.24
2022-09-26T13:20:33.429Z,12.35
2022-09-26T13:23:12.190Z,12.34
2022-09-26T13:25:49.918Z,12.51
2022-09-26T13:28:24.243Z,12.62
2022-09-26T13:31:02.970Z,12.52
2022-09-26T13:33:41.647Z,12.63
2022-09-26T13:36:09.909Z,12.76
2022-09-26T13:38:51.673Z,13.07
2022-09-26T13:41:48.727Z,13.25
2022-09-26T13:44:33.104Z,13.12
2022-09-26T13:47:17.826Z,13.19
2022-09-26T13:49:57.890Z,13.36
2022-09-26T13:52:32.041Z,13.45
2022-09-26T13:55:20.305Z,13.24
2022-09-26T13:58:03.072Z,13.31
2022-09-26T14:00:35.584Z,13.35
2022-09-26T14:03:16.282Z,13.34
2022-09-26T14:05:46.705Z,13.56
2022-09-26T14:08:44.375Z,13.47
2022-09-26T14:11:30.650Z,13.35
2022-09-26T14:14:18.981Z,13.53
2022-09-26T14:17:09.656Z,13.80
2022-09-26T14:19:39.311Z,14.03
2022-09-26T14:22:25.844Z,13.90
2022-09-26T14:24:58.525Z,14.09
2022-09-26T14:27:36.340Z,14.14
2022-09-26T14:30:26.784Z,13.92
2022-09-26T14:33:02.116Z,13.81
2022-09-26T14:35:34.711Z,13.74
2022-09-26T14:38:09.550Z,13.92
2022-09-26T14:40:37.873Z,13.76
2022-09-26T14:43:10.525Z,13.87
2022-09-26T14:45:37.059Z,13.93
2022-09-26T14:48:15.016Z,13.99
2022-09-26T14:50:53.918Z,14.01
2022-09-26T14:53:22.185Z,13.96
2022-09-26T14:56:16.625Z,14.05
2022-09-26T14:58:49.806Z,13.73
2022-09-26T15:01:25.220Z,13.57
2022-09-26T15:03:58.064Z,13.57
2022-09-26T15:06:27.593Z,13.47
2022-09-26T15:08:55.527Z,13.36
2022-09-26T15:11:37.861Z,13.36
2022-09-26T15:14:19.789Z,13.22
2022-09-26T15:16:50.479Z,13.06
2022-09-26T15:19:42.757Z,13.19
2022-09-26T15:22:30.893Z,13.06
2022-09-26T15:25:30.011Z,12.88
2022-09-26T15:27:56.994Z,12.80
2022-09-26T15:30:27.338Z,12.41
2022-09-26T15:32:57.953Z,12.49
2022-09-26T15:35:27.244Z,12.31
2022-09-26T15:38:09.708Z,12.35
2022-09-26T15:40:38.065Z,12.22
2022-09-26T15:43:10.664Z,12.14
2022-09-26T15:45:46.452Z,12.10
2022-09-26T15:48:25.029Z,12.01
2022-09-26T15:51:07.645Z,12.00
2022-09-26T15:53:45.754Z,11.89
2022-09-26T15:56:16.687Z,11.87
2022-09-26T15:58:51.474Z,11.84
2022-09-26T16:01:23.966Z,11.78
2022-09-26T16:04:05.427Z,11.86
2022-09-26T16:06:35.418Z,11.91
2022-09-26T16:09:13.983Z,11.60
2022-09-26T16:11:59.140Z,11.58
2022-09-26T16:14:42.094Z,11.55
2022-09-26T16:17:25.771Z,11.56
2022-09-26T16:19:58.712Z,11.52
2022-09-26T16:22:38.981Z,11.41
2022-09-26T16:25:17.692Z,11.45
2022-09-26T16:28:08.751Z,11.35
2022-09-26T16:30:41.966Z,11.29
2022-09-26T16:33:08.623Z,11.25
2022-09-26T16:35:37.405Z,11.43
2022-09-26T16:38:25.334Z,11.17
2022-09-26T16:40:57.430Z,11.29
2022-09-26T16:43:31.826Z,11.18
2022-09-26T16:46:14.822Z,11.11
2022-09-26T16:48:42.616Z,11.01
2022-09-26T16:51:28.833Z,10.95
2022-09-26T16:53:59.866Z,11.12
2022-09-26T16:56:27.454Z,11.00
2022-09-26T16:58:56.786Z,10.92
2022-09-26T17:01:42.519Z,10.94
2022-09-26T17:04:16.151Z,10.89
2022-09-26T17:06:42.807Z,10.80
2022-09-26T17:09:21.129Z,10.80
2022-09-26T17:11:50.956Z,10.76
2022-09-26T17:14:23.999Z,10.77
2022-09-26T17:16:58.209Z,10.64
2022-09-26T17:19:27.190Z,10.66
2022-09-26T17:21:54.996Z,10.65
2022-09-26T17:24:24.179Z,10.63
2022-09-26T17:26:55.377Z,10.63
2022-09-26T17:29:26.430Z,10.51
2022-09-26T17:31:55.114Z,10.53
2022-09-26T17:34:23.114Z,10.51
2022-09-26T17:36:51.944Z,10.49
2022-09-26T17:39:22.022Z,10.47
2022-09-26T17:41:50.052Z,10.41
2022-09-26T17:44:18.147Z,10.41
2022-09-26T17:46:48.349Z,10.38
2022-09-26T17:49:25.472Z,10.40
2022-09-26T17:51:54.085Z,10.34
2022-09-26T17:54:24.230Z,10.40
2022-09-26T17:56:51.076Z,10.34
2022-09-26T17:59:23.487Z,10.39
2022-09-26T18:01:56.821Z,10.30
2022-09-26T18:04:27.036Z,10.31
2022-09-26T18:06:56.221Z,10.34
2022-09-26T18:09:23.791Z,10.28
2022-09-26T18:12:00.967Z,10.34
2022-09-26T18:14:31.241Z,10.34
2022-09-26T18:16:59.013Z,10.25
2022-09-26T18:19:25.650Z,10.27
2022-09-26T18:21:55.744Z,10.23
2022-09-26T18:24:27.327Z,10.14
2022-09-26T18:26:57.152Z,10.13
2022-09-26T18:29:37.153Z,10.13
2022-09-26T18:32:06.085Z,10.10
2022-09-26T18:34:32.677Z,10.07
2022-09-26T18:37:00.510Z,9.98
2022-09-26T18:39:27.881Z,10.03
2022-09-26T18:42:01.288Z,10.03
2022-09-26T18:44:28.740Z,9.97
2022-09-26T18:47:00.971Z,9.98
2022-09-26T18:49:30.762Z,10.01
2022-09-26T18:51:57.394Z,9.96
2022-09-26T18:54:25.979Z,10.00
2022-09-26T18:57:11.206Z,9.99
2022-09-26T18:59:37.817Z,9.99
2022-09-26T19:02:20.124Z,9.92
2022-09-26T19:04:46.931Z,9.93
2022-09-26T19:07:21.032Z,9.94
2022-09-26T19:09:48.410Z,10.00
2022-09-26T19:12:17.086Z,9.98
2022-09-26T19:14:44.158Z,9.97
2022-09-26T19:17:11.614Z,10.02
2022-09-26T19:19:38.594Z,10.02
2022-09-26T19:22:10.376Z,9.98
2022-09-26T19:25:00.007Z,9.98
2022-09-26T19:27:49.590Z,9.93
2022-09-26T19:30:18.468Z,10.00
2022-09-26T19:32:49.345Z,10.02
2022-09-26T19:35:39.080Z,9.97
2022-09-26T19:38:17.057Z,9.97
2022-09-26T19:40:48.373Z,9.97
2022-09-26T19:43:15.611Z,9.94
2022-09-26T19:45:43.393Z,10.01
2022-09-26T19:48:17.229Z,10.01
2022-09-26T19:50:45.661Z,9.99
2022-09-26T19:53:17.807Z,9.98
2022-09-26T19:55:48.777Z,9.98
2022-09-26T19:58:18.397Z,9.97
2022-09-26T20:00:49.235Z,10.00
2022-09-26T20:03:26.804Z,9.99
2022-09-26T20:05:53.548Z,10.01
2022-09-26T20:08:22.891Z,10.04
2022-09-26T20:10:50.279Z,9.98
2022-09-26T20:13:17.131Z,9.98
2022-09-26T20:15:44.491Z,10.00
2022-09-26T20:18:24.061Z,10.02
2022-09-26T20:20:54.493Z,9.98
2022-09-26T20:23:24.385Z,9.98
2022-09-26T20:25:53.412Z,10.01
2022-09-26T20:28:20.190Z,10.05
2022-09-26T20:30:52.905Z,10.08
2022-09-26T20:33:22.431Z,10.15
2022-09-26T20:36:01.709Z,10.15
2022-09-26T20:38:36.691Z,10.09
2022-09-26T20:41:12.045Z,10.14
2022-09-26T20:43:39.763Z,10.11
2022-09-26T20:46:09.755Z,10.13
2022-09-26T20:48:37.294Z,10.13
2022-09-26T20:51:15.206Z,10.16
2022-09-26T20:53:41.772Z,10.20
2022-09-26T20:56:16.893Z,10.18
2022-09-26T20:58:44.343Z,10.22
2022-09-26T21:01:15.589Z,10.22
2022-09-26T21:03:55.231Z,10.24
2022-09-26T21:06:24.760Z,10.20
2022-09-26T21:08:51.483Z,10.27
2022-09-26T21:11:20.087Z,10.30
2022-09-26T21:13:47.433Z,10.34
2022-09-26T21:16:16.543Z,10.33
2022-09-26T21:18:45.143Z,10.35
2022-09-26T21:21:26.560Z,10.36
2022-09-26T21:24:00.215Z,10.41
2022-09-26T21:26:29.945Z,10.43
2022-09-26T21:28:56.600Z,10.42
2022-09-26T21:31:28.484Z,10.43
2022-09-26T21:33:57.860Z,10.41
2022-09-26T21:36:32.662Z,10.42
2022-09-26T21:39:01.778Z,10.42
2022-09-26T21:41:29.416Z,10.43
2022-09-26T21:44:01.330Z,10.42
2022-09-26T21:46:27.929Z,10.47
2022-09-26T21:48:55.575Z,10.47
2022-09-26T21:51:25.458Z,10.45
2022-09-26T21:54:07.030Z,10.43
2022-09-26T21:56:43.035Z,10.42
2022-09-26T21:59:09.620Z,10.43
2022-09-26T22:01:36.207Z,10.49
2022-09-26T22:04:02.805Z,10.47
2022-09-26T22:06:29.314Z,10.48
2022-09-26T22:08:55.849Z,10.47
2022-09-26T22:11:22.367Z,10.48
2022-09-26T22:13:48.936Z,10.50
2022-09-26T22:16:15.892Z,10.56
2022-09-26T22:18:42.600Z,10.54
2022-09-26T22:21:10.884Z,10.54
2022-09-26T22:23:37.917Z,10.53
2022-09-26T22:26:04.958Z,10.56
2022-09-26T22:28:31.584Z,10.46
2022-09-26T22:31:05.172Z,10.47
2022-09-26T22:33:32.271Z,10.40
2022-09-26T22:35:58.818Z,10.42
2022-09-26T22:38:25.582Z,10.46
2022-09-26T22:41:03.309Z,10.45
2022-09-26T22:43:31.074Z,10.45
2022-09-26T22:46:06.519Z,10.46
2022-09-26T22:48:34.116Z,10.43
2022-09-26T22:51:01.086Z,10.42
2022-09-26T22:53:29.896Z,10.43
2022-09-26T22:55:57.659Z,10.41
2022-09-26T22:58:26.067Z,10.42
2022-09-26T23:00:52.672Z,10.44
2022-09-26T23:03:19.251Z,10.39
2022-09-26T23:05:51.157Z,10.41
2022-09-26T23:08:17.807Z,10.39
2022-09-26T23:10:55.480Z,10.41
2022-09-26T23:13:24.884Z,10.36
2022-09-26T23:15:51.450Z,10.34
2022-09-26T23:18:18.184Z,10.31
2022-09-26T23:20:45.194Z,10.28
2022-09-26T23:23:13.783Z,10.27
2022-09-26T23:25:48.166Z,10.26
2022-09-26T23:28:16.081Z,10.26
2022-09-26T23:30:43.960Z,10.27
2022-09-26T23:33:10.672Z,10.26
2022-09-26T23:35:37.306Z,10.23
2022-09-26T23:38:05.394Z,10.29
2022-09-26T23:40:32.505Z,10.24
2022-09-26T23:42:59.219Z,10.24
2022-09-26T23:45:26.875Z,10.23
2022-09-26T23:47:53.937Z,10.21
2022-09-26T23:50:20.915Z,10.24
2022-09-26T23:52:47.450Z,10.21
2022-09-26T23:55:14.086Z,10.19
2022-09-26T23:57:40.854Z,10.15
